This is the latest recevied weather packets stored in our database for station/object HARMALA. If no packets are shown the sender has not sent any weather packets the latest 10 day(s).
| Time | Temp. | Humidity | Pressure | Rain* | Wind** | Luminosity | Snow |
|---|---|---|---|---|---|---|---|
| 1777873633 | 6.11° C | 58% | 1004.8 hPa | 0 mm | - | - | - |
| 1777872433 | 5.56° C | 59% | 1005 hPa | 0 mm | - | - | - |
| 1777871232 | 5° C | 61% | 1005.2 hPa | 0 mm | - | - | - |
| 1777870032 | 5° C | 60% | 1005.4 hPa | 0 mm | - | - | - |
| 1777868832 | 3.89° C | 65% | 1005.7 hPa | 0 mm | - | - | - |
| 1777867632 | 3.33° C | 67% | 1005.9 hPa | 0 mm | - | - | - |
| 1777866432 | 2.78° C | 70% | 1006.1 hPa | 0 mm | - | - | - |
| 1777865233 | 1.67° C | 75% | 1006.2 hPa | 0 mm | - | - | - |
| 1777862832 | 0.56° C | 79% | 1006.6 hPa | 0 mm | - | - | - |
| 1777847232 | 3.89° C | 56% | 1007.9 hPa | 0 mm | - | - | - |
| 1777844831 | 4.44° C | 54% | 1008.2 hPa | 0 mm | - | - | - |
| 1777843631 | 5.56° C | 52% | 1008.1 hPa | 0 mm | - | - | - |
| 1777842432 | 7.22° C | 47% | 1008.2 hPa | 0 mm | - | - | - |
| 1777840031 | 8.33° C | 44% | 1008 hPa | 0 mm | - | - | - |
| 1777838831 | 8.89° C | 42% | 1008.1 hPa | 0 mm | - | - | - |
| 1777834031 | 10.56° C | 33% | 1007.7 hPa | 0 mm | - | - | - |
| 1777832830 | 11.11° C | 31% | 1007.6 hPa | 0 mm | - | - | - |
| 1777830431 | 11.67° C | 31% | 1007.4 hPa | 0 mm | - | - | - |
| 1777829237 | 11.67° C | 30% | 1007.1 hPa | 0 mm | - | - | - |
| 1777824430 | 14.44° C | 30% | 1007.1 hPa | 0 mm | - | - | - |
| 1777823230 | 13.89° C | 31% | 1007.2 hPa | 0 mm | - | - | - |
| 1777822030 | 13.89° C | 31% | 1007.3 hPa | 0 mm | - | - | - |
| 1777820830 | 13.89° C | 34% | 1007.3 hPa | 0 mm | - | - | - |
| 1777819630 | 13.89° C | 35% | 1007.4 hPa | 0 mm | - | - | - |
| 1777817230 | 13.89° C | 36% | 1007.6 hPa | 0 mm | - | - | - |
* Rain latest hour (hover to see other rain measurements)
** Current wind speed in m/s (hover to see current wind gust speed)